Time;durP1;ratioP1;P1;durP2;ratioP2;P2;SDS_P1;SDS_P2;PMS_P1;PMS_P2;Temp;Humidity;BMP_temperature;BMP_pressure;BME280_temperature;BME280_humidity;BME280_pressure;Samples;Min_cycle;Max_cycle;Signal;HPM_P1;HPM_P2
2021/12/02 00:02:21;;;;;;;;;;;;;;;7.39;71.82;99855.56;5066654;28;19917;-63
2021/12/02 00:04:46;;;;;;;;;;;;;;;7.40;71.98;99857.22;5074779;28;20025;-63
2021/12/02 00:07:12;;;;;;;;;;;;;;;7.40;71.54;99854.44;5070411;28;19920;-63
2021/12/02 00:09:37;;;;;;;;;;;;;;;7.40;71.65;99862.75;5076754;28;19920;-63
2021/12/02 00:12:03;;;;;;;;;;;;;;;7.40;71.41;99862.75;5067590;28;19917;-63
2021/12/02 00:14:36;;;;;;;;;;;;;;;7.41;71.83;99866.31;5057732;28;19925;-63
2021/12/02 00:17:09;;;;;;;;;;;;;;;7.41;71.12;99863.56;5062487;28;19920;-63
2021/12/02 00:22:20;;;;;;;;;;;;;;;7.40;71.80;99862.75;5061570;28;19924;-63
2021/12/02 00:24:46;;;;;;;;;;;;;;;7.41;71.29;99871.84;5076275;28;20058;-63
2021/12/02 00:27:12;;;;;;;;;;;;;;;7.38;71.50;99867.66;5059590;28;20349;-63
2021/12/02 00:29:39;;;;;;;;;;;;;;;7.37;71.33;99868.75;5057001;28;19927;-63
2021/12/02 00:32:08;;;;;;;;;;;;;;;7.36;71.54;99861.59;5062709;28;19916;-63
2021/12/02 00:34:35;;;;;;;;;;;;;;;7.35;71.34;99863.50;5073553;28;20023;-63
2021/12/02 00:37:01;;;;;;;;;;;;;;;7.34;71.68;99847.19;5056748;28;20331;-63
2021/12/02 00:39:27;;;;;;;;;;;;;;;7.31;72.11;99856.84;5072630;28;19916;-63
2021/12/02 00:41:54;;;;;;;;;;;;;;;7.29;71.61;99849.88;5074750;28;19920;-63
2021/12/02 00:44:19;;;;;;;;;;;;;;;7.29;71.22;99850.72;5063491;28;19925;-63
2021/12/02 00:46:45;;;;;;;;;;;;;;;7.25;71.76;99846.81;5056157;28;19932;-63
2021/12/02 00:49:12;;;;;;;;;;;;;;;7.23;71.42;99851.75;5056277;28;19921;-63
2021/12/02 00:51:38;;;;;;;;;;;;;;;7.20;71.78;99848.69;5056524;28;19951;-63
2021/12/02 00:54:04;;;;;;;;;;;;;;;7.21;71.84;99853.09;5055547;28;20407;-63
2021/12/02 00:56:30;;;;;;;;;;;;;;;7.20;71.64;99848.69;5063076;28;19920;-63
2021/12/02 00:58:55;;;;;;;;;;;;;;;7.18;71.90;99848.91;5057356;28;19924;-63
2021/12/02 01:01:22;;;;;;;;;;;;;;;7.16;71.58;99844.75;5055630;28;20285;-63
2021/12/02 01:03:49;;;;;;;;;;;;;;;7.16;72.25;99844.75;5056363;28;19917;-63
2021/12/02 01:06:14;;;;;;;;;;;;;;;7.13;71.83;99844.16;5056378;28;19913;-63
2021/12/02 01:08:40;;;;;;;;;;;;;;;7.13;72.29;99849.69;5067741;28;19927;-63
2021/12/02 01:11:06;;;;;;;;;;;;;;;7.12;71.32;99848.03;5075059;28;19917;-63
2021/12/02 01:13:31;;;;;;;;;;;;;;;7.14;72.28;99853.28;5058568;28;19921;-64
2021/12/02 01:15:56;;;;;;;;;;;;;;;7.13;71.92;99863.47;5063870;28;19931;-63
2021/12/02 01:18:22;;;;;;;;;;;;;;;7.12;72.12;99859.06;5056725;28;20371;-63
2021/12/02 01:20:48;;;;;;;;;;;;;;;7.12;72.48;99850.78;5057807;28;20419;-64
2021/12/02 01:23:15;;;;;;;;;;;;;;;7.14;72.37;99856.03;5074146;28;20441;-63
2021/12/02 01:25:40;;;;;;;;;;;;;;;7.13;72.10;99860.72;5076118;28;20015;-63
2021/12/02 01:28:09;;;;;;;;;;;;;;;7.14;72.02;99858.78;5073242;28;20352;-63
2021/12/02 01:30:34;;;;;;;;;;;;;;;7.13;71.67;99862.66;5074884;28;20528;-63
2021/12/02 01:33:01;;;;;;;;;;;;;;;7.14;71.55;99864.31;5075010;28;19920;-63
2021/12/02 01:35:27;;;;;;;;;;;;;;;7.14;71.58;99865.13;5074757;28;20273;-63
2021/12/02 01:37:53;;;;;;;;;;;;;;;7.09;71.28;99873.34;5074842;28;19932;-63
2021/12/02 01:40:18;;;;;;;;;;;;;;;7.08;71.07;99871.69;5056252;28;19920;-64
2021/12/02 01:42:45;;;;;;;;;;;;;;;7.10;71.64;99875.00;5054742;28;19936;-63
2021/12/02 01:45:14;;;;;;;;;;;;;;;7.07;71.58;99872.78;5067821;28;19927;-63
2021/12/02 01:47:45;;;;;;;;;;;;;;;7.06;71.79;99873.03;5058427;28;19966;-63
2021/12/02 01:50:14;;;;;;;;;;;;;;;7.05;71.55;99868.59;5055748;28;19935;-63
2021/12/02 01:52:41;;;;;;;;;;;;;;;7.04;71.94;99869.69;5063804;28;19921;-63
2021/12/02 01:55:08;;;;;;;;;;;;;;;7.05;71.66;99868.59;5055316;28;19917;-63
2021/12/02 01:57:36;;;;;;;;;;;;;;;7.04;71.84;99875.22;5065743;28;20324;-63
2021/12/02 02:00:07;;;;;;;;;;;;;;;7.05;71.40;99874.13;5056957;28;20058;-63
2021/12/02 02:02:35;;;;;;;;;;;;;;;7.01;72.14;99865.50;5055179;28;19923;-63
2021/12/02 02:05:01;;;;;;;;;;;;;;;7.00;71.98;99866.63;5054807;28;20380;-63
2021/12/02 02:07:26;;;;;;;;;;;;;;;6.99;71.36;99866.84;5065401;28;19931;-63
2021/12/02 02:09:51;;;;;;;;;;;;;;;6.98;72.19;99868.78;5074813;28;20422;-63
2021/12/02 02:12:17;;;;;;;;;;;;;;;6.97;71.80;99869.88;5062909;28;19975;-63
2021/12/02 02:14:43;;;;;;;;;;;;;;;6.97;72.04;99872.63;5055145;28;19920;-63
2021/12/02 02:17:22;;;;;;;;;;;;;;;6.95;71.66;99874.78;5064491;28;20030;-64
2021/12/02 02:19:48;;;;;;;;;;;;;;;6.92;71.81;99872.56;5074684;28;19916;-63
2021/12/02 02:22:19;;;;;;;;;;;;;;;6.91;71.68;99881.06;5065222;28;19927;-63
2021/12/02 02:24:44;;;;;;;;;;;;;;;6.87;71.51;99870.53;5066660;28;20016;-63
2021/12/02 02:27:09;;;;;;;;;;;;;;;6.86;71.81;99873.56;5074674;28;19952;-63
2021/12/02 02:29:34;;;;;;;;;;;;;;;6.86;71.90;99870.81;5064198;28;19931;-63
2021/12/02 02:31:59;;;;;;;;;;;;;;;6.85;72.06;99866.38;5053718;28;20379;-63
2021/12/02 02:34:25;;;;;;;;;;;;;;;6.84;71.48;99865.56;5054232;28;19913;-63
2021/12/02 02:36:52;;;;;;;;;;;;;;;6.80;71.73;99871.84;5067711;28;19928;-63
2021/12/02 02:39:19;;;;;;;;;;;;;;;6.79;72.02;99878.41;5053889;28;19921;-63
2021/12/02 02:41:46;;;;;;;;;;;;;;;6.78;71.46;99876.75;5055147;28;19925;-63
2021/12/02 02:44:11;;;;;;;;;;;;;;;6.76;71.01;99874.25;5054476;28;19931;-63
2021/12/02 02:46:38;;;;;;;;;;;;;;;6.75;71.52;99877.25;5065691;28;19920;-63
2021/12/02 02:49:08;;;;;;;;;;;;;;;6.76;71.51;99873.38;5053899;28;19943;-63
2021/12/02 02:51:34;;;;;;;;;;;;;;;6.74;71.84;99865.38;5057803;28;20029;-63
2021/12/02 02:54:04;;;;;;;;;;;;;;;6.72;71.13;99866.72;5072926;28;19967;-64
2021/12/02 02:56:31;;;;;;;;;;;;;;;6.72;71.38;99863.94;5063966;28;19921;-63
2021/12/02 03:04:33;;;;;;;;;;;;;;;6.65;71.29;99861.38;5053914;28;20428;-63
2021/12/02 03:07:20;;;;;;;;;;;;;;;6.63;71.22;99874.56;5053247;28;20018;-63
2021/12/02 03:09:54;;;;;;;;;;;;;;;6.62;70.80;99879.25;5055235;28;19913;-63
2021/12/02 03:12:51;;;;;;;;;;;;;;;6.62;71.25;99867.41;5062716;28;19920;-64
2021/12/02 03:17:32;;;;;;;;;;;;;;;6.62;71.49;99878.44;5063043;28;19920;-63
2021/12/02 03:19:58;;;;;;;;;;;;;;;6.60;70.86;99870.41;5073980;28;19920;-64
2021/12/02 03:22:23;;;;;;;;;;;;;;;6.59;71.27;99885.28;5073004;28;20506;-63
2021/12/02 03:24:48;;;;;;;;;;;;;;;6.57;70.86;99884.69;5059564;28;19944;-63
2021/12/02 03:27:13;;;;;;;;;;;;;;;6.55;71.04;99878.59;5053563;28;19924;-64
2021/12/02 03:29:40;;;;;;;;;;;;;;;6.55;71.95;99889.63;5067689;28;19970;-63
2021/12/02 03:32:06;;;;;;;;;;;;;;;6.56;71.98;99899.59;5073665;28;19932;-63
2021/12/02 03:34:31;;;;;;;;;;;;;;;6.57;70.96;99900.41;5056752;28;19921;-63
2021/12/02 03:36:56;;;;;;;;;;;;;;;6.57;71.38;99903.16;5063084;28;19921;-64
2021/12/02 03:39:22;;;;;;;;;;;;;;;6.56;71.41;99902.34;5053616;28;19917;-63
2021/12/02 03:41:47;;;;;;;;;;;;;;;6.56;71.29;99902.34;5069945;28;20441;-63
2021/12/02 03:44:13;;;;;;;;;;;;;;;6.55;71.00;99908.91;5073627;28;19928;-63
2021/12/02 03:46:39;;;;;;;;;;;;;;;6.55;71.17;99914.44;5065711;28;19936;-63
2021/12/02 03:49:04;;;;;;;;;;;;;;;6.56;70.78;99918.88;5072510;28;19927;-64
2021/12/02 03:51:30;;;;;;;;;;;;;;;6.58;71.06;99907.59;5073779;28;19917;-63
2021/12/02 03:53:55;;;;;;;;;;;;;;;6.60;70.90;99906.25;5073502;28;19963;-64
2021/12/02 03:56:21;;;;;;;;;;;;;;;6.60;71.28;99902.66;5053482;28;20269;-63
2021/12/02 03:58:46;;;;;;;;;;;;;;;6.60;71.22;99899.88;5053501;28;20292;-64
2021/12/02 04:01:12;;;;;;;;;;;;;;;6.56;71.22;99907.84;5063771;28;19927;-63
2021/12/02 04:03:38;;;;;;;;;;;;;;;6.55;71.41;99900.63;5060743;28;20307;-63
2021/12/02 04:06:03;;;;;;;;;;;;;;;6.53;70.88;99900.06;5053276;28;19916;-63
2021/12/02 04:08:41;;;;;;;;;;;;;;;6.52;71.45;99894.78;5053754;28;19927;-64
2021/12/02 04:11:20;;;;;;;;;;;;;;;6.51;70.86;99893.13;5052669;28;20288;-63
2021/12/02 04:16:17;;;;;;;;;;;;;;;6.48;71.35;99894.44;5053456;28;19921;-63
2021/12/02 04:18:42;;;;;;;;;;;;;;;6.47;70.61;99892.78;5062499;28;19943;-64
2021/12/02 04:21:07;;;;;;;;;;;;;;;6.47;70.81;99887.28;5053097;28;19917;-63
2021/12/02 04:23:32;;;;;;;;;;;;;;;6.46;71.28;99887.53;5068861;28;19920;-63
2021/12/02 04:25:58;;;;;;;;;;;;;;;6.43;71.32;99891.63;5071054;28;19916;-63
2021/12/02 04:28:29;;;;;;;;;;;;;;;6.44;70.87;99882.25;5053233;28;19919;-63
2021/12/02 04:30:54;;;;;;;;;;;;;;;6.43;70.97;99885.28;5061257;28;19925;-63
2021/12/02 04:33:19;;;;;;;;;;;;;;;6.40;70.79;99886.59;5072082;28;19920;-63
2021/12/02 04:35:45;;;;;;;;;;;;;;;6.39;71.46;99898.72;5072326;28;19916;-63
2021/12/02 04:38:10;;;;;;;;;;;;;;;6.37;71.62;99898.97;5072282;28;19980;-63
2021/12/02 04:40:36;;;;;;;;;;;;;;;6.36;70.97;99901.97;5068535;28;19925;-63
2021/12/02 04:43:02;;;;;;;;;;;;;;;6.36;70.78;99910.22;5072957;28;20006;-63
2021/12/02 04:45:27;;;;;;;;;;;;;;;6.35;71.36;99912.16;5074388;28;20387;-63
2021/12/02 04:47:52;;;;;;;;;;;;;;;6.37;71.38;99920.19;5070740;28;19921;-63
2021/12/02 04:50:18;;;;;;;;;;;;;;;6.37;70.70;99923.78;5076394;28;20398;-63
2021/12/02 04:52:43;;;;;;;;;;;;;;;6.37;71.12;99928.47;5072972;28;20380;-63
2021/12/02 04:55:08;;;;;;;;;;;;;;;6.40;71.58;99925.19;5061769;28;19977;-63
2021/12/02 04:57:33;;;;;;;;;;;;;;;6.41;71.02;99921.38;5076474;28;20007;-63
2021/12/02 04:59:59;;;;;;;;;;;;;;;6.42;70.99;99931.31;5075605;28;19916;-63
2021/12/02 05:02:24;;;;;;;;;;;;;;;6.42;71.11;99922.19;5069968;28;20340;-63
2021/12/02 05:04:49;;;;;;;;;;;;;;;6.41;71.09;99918.59;5059063;28;19920;-63
2021/12/02 05:07:17;;;;;;;;;;;;;;;6.40;70.66;99936.22;5075013;28;19920;-63
2021/12/02 05:09:42;;;;;;;;;;;;;;;6.38;71.37;99925.44;5070133;28;20261;-63
2021/12/02 05:12:13;;;;;;;;;;;;;;;6.38;71.27;99930.13;5076052;28;19923;-63
2021/12/02 05:14:38;;;;;;;;;;;;;;;6.35;71.10;99936.13;5063737;28;20000;-63
2021/12/02 05:17:04;;;;;;;;;;;;;;;6.34;70.99;99946.31;5057960;28;19960;-63
2021/12/02 05:19:29;;;;;;;;;;;;;;;6.35;71.68;99952.66;5055925;28;19923;-63
2021/12/02 05:21:54;;;;;;;;;;;;;;;6.34;71.39;99954.59;5055360;28;19921;-63
2021/12/02 05:24:19;;;;;;;;;;;;;;;6.35;71.28;99956.25;5056532;28;20464;-63
2021/12/02 05:26:44;;;;;;;;;;;;;;;6.38;71.36;99960.44;5073164;28;19921;-63
2021/12/02 05:29:10;;;;;;;;;;;;;;;6.34;69.90;99959.28;5074930;28;19958;-63
2021/12/02 05:31:35;;;;;;;;;;;;;;;6.25;70.20;99953.31;5074957;28;19920;-63
2021/12/02 05:34:00;;;;;;;;;;;;;;;6.19;70.91;99943.28;5073121;28;20390;-63
2021/12/02 05:36:26;;;;;;;;;;;;;;;6.14;70.61;99944.03;5055247;28;19956;-63
2021/12/02 05:38:51;;;;;;;;;;;;;;;6.13;70.04;99936.84;5055821;28;19916;-63
2021/12/02 05:41:17;;;;;;;;;;;;;;;6.11;70.34;99938.16;5054938;28;20095;-63
2021/12/02 05:43:42;;;;;;;;;;;;;;;6.07;70.68;99940.56;5064720;28;20320;-63
2021/12/02 05:46:07;;;;;;;;;;;;;;;6.06;70.81;99944.41;5056184;28;19920;-63
2021/12/02 05:48:33;;;;;;;;;;;;;;;6.06;70.63;99947.16;5054628;28;20406;-63
2021/12/02 05:50:58;;;;;;;;;;;;;;;6.06;70.42;99962.88;5073423;28;19927;-62
2021/12/02 05:53:23;;;;;;;;;;;;;;;6.07;70.56;99968.13;5079463;28;20118;-62
2021/12/02 05:55:48;;;;;;;;;;;;;;;6.07;70.81;99967.28;5080222;28;19932;-62
2021/12/02 05:58:14;;;;;;;;;;;;;;;6.05;70.48;99967.53;5067905;28;20304;-62
2021/12/02 06:00:40;;;;;;;;;;;;;;;6.05;70.49;99956.53;5063936;28;20003;-62
2021/12/02 06:03:05;;;;;;;;;;;;;;;6.02;70.43;99946.00;5066792;28;19921;-62
2021/12/02 06:05:30;;;;;;;;;;;;;;;5.99;70.42;99957.50;5067855;28;20280;-61
2021/12/02 06:08:01;;;;;;;;;;;;;;;5.97;70.43;99950.53;5060416;28;20051;-62
2021/12/02 06:10:26;;;;;;;;;;;;;;;5.94;70.39;99948.31;5065989;28;20027;-61
2021/12/02 06:12:51;;;;;;;;;;;;;;;5.89;70.30;99952.59;5067758;28;20015;-62
2021/12/02 06:15:17;;;;;;;;;;;;;;;5.87;70.82;99951.16;5069853;28;20027;-62
2021/12/02 06:17:43;;;;;;;;;;;;;;;5.83;70.31;99941.72;5059656;28;19986;-62
2021/12/02 06:20:09;;;;;;;;;;;;;;;5.82;70.79;99953.81;5064992;28;19960;-62
2021/12/02 06:22:34;;;;;;;;;;;;;;;5.80;70.46;99953.22;5068072;28;19928;-62
2021/12/02 06:27:52;;;;;;;;;;;;;;;5.75;70.52;99967.72;5034731;28;19929;-63
2021/12/02 06:30:18;;;;;;;;;;;;;;;5.73;70.45;99974.53;5064171;28;19928;-62
2021/12/02 06:32:43;;;;;;;;;;;;;;;5.70;70.96;99975.88;5069821;28;19924;-62
2021/12/02 06:35:09;;;;;;;;;;;;;;;5.68;70.46;99972.50;5066686;28;19920;-61
2021/12/02 06:37:34;;;;;;;;;;;;;;;5.66;70.61;99971.94;5070089;28;19932;-63
2021/12/02 06:39:59;;;;;;;;;;;;;;;5.66;71.15;99963.69;5070508;28;19912;-63
2021/12/02 06:42:24;;;;;;;;;;;;;;;5.66;70.59;99970.00;5079004;28;19916;-63
2021/12/02 06:44:50;;;;;;;;;;;;;;;5.63;70.43;99955.91;5079483;28;19932;-63
2021/12/02 06:47:15;;;;;;;;;;;;;;;5.64;71.41;99961.16;5068165;28;20266;-63
2021/12/02 06:49:40;;;;;;;;;;;;;;;5.63;70.51;99964.16;5087939;28;20013;-63
2021/12/02 06:52:11;;;;;;;;;;;;;;;5.62;70.78;99968.00;5071952;28;19925;-63
2021/12/02 06:54:37;;;;;;;;;;;;;;;5.65;70.83;99981.25;5075845;28;19931;-63
2021/12/02 06:57:02;;;;;;;;;;;;;;;5.66;70.54;99999.47;5059135;28;19920;-62
2021/12/02 06:59:27;;;;;;;;;;;;;;;5.66;71.08;100003.06;5078578;28;19939;-61
2021/12/02 07:01:52;;;;;;;;;;;;;;;5.68;71.29;100007.47;5072044;28;19975;-62
2021/12/02 07:04:18;;;;;;;;;;;;;;;5.69;71.06;100003.63;5070990;28;20000;-62
2021/12/02 07:06:44;;;;;;;;;;;;;;;5.72;70.81;100008.66;5071894;28;19920;-62
2021/12/02 07:09:09;;;;;;;;;;;;;;;5.73;71.05;100008.41;5062867;28;20406;-61
2021/12/02 07:11:34;;;;;;;;;;;;;;;5.79;70.67;100020.38;5071269;28;19920;-62
2021/12/02 07:14:06;;;;;;;;;;;;;;;5.81;70.45;100018.22;5069076;28;20334;-62
2021/12/02 07:16:34;;;;;;;;;;;;;;;5.82;70.50;100028.16;5060910;28;19931;-61
2021/12/02 07:19:03;;;;;;;;;;;;;;;5.82;70.28;100017.16;5085952;28;20499;-61
2021/12/02 07:21:30;;;;;;;;;;;;;;;5.82;70.74;100022.66;5060240;28;19916;-61
2021/12/02 07:23:55;;;;;;;;;;;;;;;5.80;70.88;100022.06;5065028;28;20004;-61
2021/12/02 07:26:21;;;;;;;;;;;;;;;5.78;70.63;100026.97;5076413;28;19928;-61
2021/12/02 07:28:46;;;;;;;;;;;;;;;5.80;70.55;100041.31;5065371;28;19939;-61
2021/12/02 07:31:12;;;;;;;;;;;;;;;5.78;70.44;100043.50;5073576;28;19928;-62
2021/12/02 07:33:38;;;;;;;;;;;;;;;5.79;70.41;100042.41;5069319;28;19921;-61
2021/12/02 07:36:04;;;;;;;;;;;;;;;5.80;70.82;100041.31;5068560;28;20449;-61
2021/12/02 07:38:29;;;;;;;;;;;;;;;5.77;70.22;100047.31;5084790;28;19920;-62
2021/12/02 07:40:58;;;;;;;;;;;;;;;5.74;70.70;100048.66;5066792;28;20019;-62
2021/12/02 07:43:24;;;;;;;;;;;;;;;5.78;70.54;100052.59;5070102;28;20361;-62
2021/12/02 07:45:49;;;;;;;;;;;;;;;5.80;70.44;100052.34;5072539;28;19956;-61
2021/12/02 07:48:16;;;;;;;;;;;;;;;5.82;70.90;100055.72;5065048;28;19974;-62
2021/12/02 07:50:41;;;;;;;;;;;;;;;5.79;70.66;100054.25;5063694;28;19921;-62
2021/12/02 07:53:07;;;;;;;;;;;;;;;5.77;70.50;100052.81;5062638;28;20402;-62
2021/12/02 07:55:38;;;;;;;;;;;;;;;5.76;70.55;100049.22;5064807;28;19921;-62
2021/12/02 07:58:05;;;;;;;;;;;;;;;5.77;70.61;100055.56;5067214;28;19966;-59
2021/12/02 08:00:30;;;;;;;;;;;;;;;5.74;70.73;100054.16;5065926;28;20005;-60
2021/12/02 08:02:56;;;;;;;;;;;;;;;5.72;70.72;100060.97;5062382;28;19991;-60
2021/12/02 08:05:23;;;;;;;;;;;;;;;5.69;70.61;100066.97;5069433;28;20430;-61
2021/12/02 08:07:48;;;;;;;;;;;;;;;5.67;70.92;100064.47;5069401;28;19950;-60
2021/12/02 08:10:14;;;;;;;;;;;;;;;5.66;70.93;100062.78;5058957;28;20383;-61
2021/12/02 08:12:45;;;;;;;;;;;;;;;5.60;70.39;100064.56;5070947;28;19931;-61
2021/12/02 08:15:10;;;;;;;;;;;;;;;5.58;70.51;100066.75;5064269;28;19921;-61
2021/12/02 08:17:36;;;;;;;;;;;;;;;5.56;70.49;100079.88;5062524;28;19946;-60
2021/12/02 08:20:01;;;;;;;;;;;;;;;5.57;70.81;100081.56;5070310;28;19927;-61
2021/12/02 08:22:26;;;;;;;;;;;;;;;5.58;70.97;100086.00;5092163;28;20339;-60
2021/12/02 08:24:52;;;;;;;;;;;;;;;5.57;70.30;100080.72;5055366;28;19916;-61
2021/12/02 08:27:17;;;;;;;;;;;;;;;5.55;70.37;100080.97;5056374;28;19932;-61
2021/12/02 08:29:42;;;;;;;;;;;;;;;5.52;70.83;100075.94;5056612;28;19927;-61
2021/12/02 08:32:08;;;;;;;;;;;;;;;5.52;70.68;100077.84;5064764;28;20007;-61
2021/12/02 08:34:33;;;;;;;;;;;;;;;5.51;70.85;100088.03;5076179;28;19916;-61
2021/12/02 08:36:58;;;;;;;;;;;;;;;5.51;71.04;100077.03;5074621;28;20375;-61
2021/12/02 08:39:27;;;;;;;;;;;;;;;5.52;70.65;100086.94;5056037;28;20257;-61
2021/12/02 08:41:54;;;;;;;;;;;;;;;5.55;70.68;100083.72;5056191;28;19946;-61
2021/12/02 08:44:20;;;;;;;;;;;;;;;5.52;70.54;100086.13;5068948;28;20331;-61
2021/12/02 08:46:47;;;;;;;;;;;;;;;5.51;70.53;100088.03;5074791;28;19928;-62
2021/12/02 08:49:16;;;;;;;;;;;;;;;5.52;70.61;100095.22;5075287;28;19925;-61
2021/12/02 08:51:42;;;;;;;;;;;;;;;5.52;70.62;100111.72;5073571;28;19924;-61
2021/12/02 08:54:07;;;;;;;;;;;;;;;5.54;70.47;100108.72;5064898;28;20311;-59
2021/12/02 08:56:33;;;;;;;;;;;;;;;5.77;72.33;100125.25;5064996;28;20375;-59
2021/12/02 08:58:59;;;;;;;;;;;;;;;5.93;71.02;100129.22;5069697;28;20291;-61
2021/12/02 09:01:25;;;;;;;;;;;;;;;5.96;70.44;100138.94;5067409;28;20001;-60
2021/12/02 09:03:50;;;;;;;;;;;;;;;5.94;70.82;100141.94;5070937;28;19975;-61
2021/12/02 09:06:22;;;;;;;;;;;;;;;5.94;70.47;100146.63;5072883;28;19928;-61
2021/12/02 09:08:48;;;;;;;;;;;;;;;5.86;70.11;100145.03;5070495;28;19967;-60
2021/12/02 09:11:14;;;;;;;;;;;;;;;5.80;70.92;100157.00;5067088;28;19964;-61
2021/12/02 09:13:39;;;;;;;;;;;;;;;5.80;70.49;100154.22;5062118;28;20443;-61
2021/12/02 09:16:04;;;;;;;;;;;;;;;5.78;70.34;100168.25;5056296;28;19920;-60
2021/12/02 09:18:29;;;;;;;;;;;;;;;6.13;77.76;100170.19;5061047;28;19920;-60
2021/12/02 09:20:54;;;;;;;;;;;;;;;6.64;73.46;100166.63;5064643;28;19967;-60
2021/12/02 09:23:23;;;;;;;;;;;;;;;6.62;70.92;100167.94;5072918;28;19921;-61
2021/12/02 09:25:48;;;;;;;;;;;;;;;6.52;71.19;100168.56;5058806;28;19982;-63
2021/12/02 09:28:15;;;;;;;;;;;;;;;6.44;70.73;100185.47;5059465;28;19951;-62
2021/12/02 09:30:40;;;;;;;;;;;;;;;6.34;70.23;100185.28;5065696;28;19928;-63
2021/12/02 09:33:05;;;;;;;;;;;;;;;6.26;71.19;100177.38;5065639;28;20376;-61
2021/12/02 09:35:37;;;;;;;;;;;;;;;6.21;70.85;100180.88;5063305;28;19940;-61
2021/12/02 09:38:02;;;;;;;;;;;;;;;6.15;70.97;100184.56;5072361;28;19921;-61
2021/12/02 09:40:27;;;;;;;;;;;;;;;6.09;70.73;100182.75;5069986;28;19921;-63
2021/12/02 09:42:53;;;;;;;;;;;;;;;6.08;70.95;100187.44;5072290;28;19921;-62
2021/12/02 09:45:18;;;;;;;;;;;;;;;6.03;70.47;100187.31;5064193;28;19927;-62
2021/12/02 09:47:45;;;;;;;;;;;;;;;5.99;70.68;100191.63;5064393;28;19920;-62
2021/12/02 09:50:14;;;;;;;;;;;;;;;5.95;70.55;100184.94;5077070;28;19974;-61
2021/12/02 09:52:41;;;;;;;;;;;;;;;5.95;70.88;100190.44;5070505;28;19921;-61
2021/12/02 09:55:13;;;;;;;;;;;;;;;5.93;70.75;100189.00;5066188;28;19940;-62
2021/12/02 09:57:44;;;;;;;;;;;;;;;5.89;70.64;100186.72;5066471;28;19969;-62
2021/12/02 10:00:16;;;;;;;;;;;;;;;5.93;71.04;100184.31;5070912;28;20427;-62
2021/12/02 10:02:50;;;;;;;;;;;;;;;6.10;70.20;100185.28;5066940;28;19963;-62
2021/12/02 10:05:25;;;;;;;;;;;;;;;6.32;70.48;100177.22;5066503;28;20252;-62
2021/12/02 10:07:51;;;;;;;;;;;;;;;6.67;70.28;100184.59;5067511;28;20038;-61
2021/12/02 10:10:27;;;;;;;;;;;;;;;6.95;69.90;100189.31;5072246;28;20007;-60
2021/12/02 10:13:42;;;;;;;;;;;;;;;7.21;69.51;100195.34;5063042;28;19927;-60
2021/12/02 10:16:04;;;;;;;;;;;;;;;7.34;68.98;100195.00;5067113;28;19932;-60
2021/12/02 10:18:50;;;;;;;;;;;;;;;7.20;68.93;100188.97;5061126;28;20399;-60
2021/12/02 10:21:21;;;;;;;;;;;;;;;7.01;69.77;100202.13;5059141;28;20376;-60
2021/12/02 10:23:53;;;;;;;;;;;;;;;6.90;68.92;100200.25;5064096;28;20011;-60
2021/12/02 10:26:19;;;;;;;;;;;;;;;6.82;69.76;100208.91;5061718;28;19916;-60
2021/12/02 10:28:44;;;;;;;;;;;;;;;6.77;69.50;100211.56;5051431;28;19925;-61
2021/12/02 10:31:10;;;;;;;;;;;;;;;6.71;70.35;100207.00;5052020;28;19933;-60
2021/12/02 10:33:37;;;;;;;;;;;;;;;6.67;69.29;100211.34;5068505;28;20392;-61
2021/12/02 10:36:03;;;;;;;;;;;;;;;6.62;70.03;100212.91;5067501;28;20236;-60
2021/12/02 10:38:37;;;;;;;;;;;;;;;6.57;70.25;100212.81;5064838;28;20027;-61
2021/12/02 10:41:07;;;;;;;;;;;;;;;6.52;69.78;100214.59;5054133;28;20823;-61
2021/12/02 10:43:32;;;;;;;;;;;;;;;6.49;70.46;100232.47;5063307;28;19928;-61
2021/12/02 10:46:17;;;;;;;;;;;;;;;6.44;69.86;100224.06;5069850;28;19920;-61
2021/12/02 10:48:50;;;;;;;;;;;;;;;6.38;70.00;100231.41;5053465;28;20330;-61
2021/12/02 10:51:38;;;;;;;;;;;;;;;6.33;70.35;100234.06;5052279;28;19923;-61
2021/12/02 10:54:08;;;;;;;;;;;;;;;6.32;70.44;100232.34;5063858;28;19928;-61
2021/12/02 10:56:34;;;;;;;;;;;;;;;6.32;69.67;100226.84;5070750;28;19925;-61
2021/12/02 10:59:19;;;;;;;;;;;;;;;6.33;69.93;100236.81;5068136;28;20371;-61
2021/12/02 11:01:44;;;;;;;;;;;;;;;6.33;70.19;100241.50;5072485;28;19983;-61
2021/12/02 11:04:12;;;;;;;;;;;;;;;6.30;69.82;100237.28;5059136;28;19983;-61
2021/12/02 11:06:44;;;;;;;;;;;;;;;6.29;70.24;100243.06;5071860;28;19917;-61
2021/12/02 11:09:24;;;;;;;;;;;;;;;6.31;70.04;100241.72;5070717;28;20276;-61
2021/12/02 11:12:08;;;;;;;;;;;;;;;6.29;70.43;100246.63;5058675;28;19978;-61
2021/12/02 11:14:34;;;;;;;;;;;;;;;6.32;70.34;100253.56;5068181;28;20023;-61
2021/12/02 11:17:07;;;;;;;;;;;;;;;6.30;70.35;100255.75;5065254;28;19952;-61
2021/12/02 11:19:33;;;;;;;;;;;;;;;6.29;70.15;100249.41;5062026;28;19986;-60
2021/12/02 11:22:05;;;;;;;;;;;;;;;6.30;70.22;100250.22;5070099;28;19924;-60
2021/12/02 11:24:34;;;;;;;;;;;;;;;6.32;69.94;100248.06;5062850;28;19943;-60
2021/12/02 11:27:05;;;;;;;;;;;;;;;6.32;70.42;100248.88;5052749;28;19947;-61
2021/12/02 11:29:49;;;;;;;;;;;;;;;6.33;70.22;100249.75;5063662;28;19917;-61
2021/12/02 11:32:25;;;;;;;;;;;;;;;6.34;70.48;100255.00;5056271;28;19977;-61
2021/12/02 11:35:08;;;;;;;;;;;;;;;6.37;70.61;100261.97;5066974;28;19928;-61
2021/12/02 11:37:35;;;;;;;;;;;;;;;6.43;70.25;100257.41;5066111;28;19928;-62
2021/12/02 11:40:05;;;;;;;;;;;;;;;6.49;70.50;100264.72;5068572;28;19927;-62
2021/12/02 11:42:31;;;;;;;;;;;;;;;6.51;70.33;100268.91;5064929;28;19921;-63
2021/12/02 11:44:57;;;;;;;;;;;;;;;6.51;70.10;100265.31;5069504;28;19924;-62
2021/12/02 11:47:22;;;;;;;;;;;;;;;6.50;69.59;100271.91;5058919;28;19967;-62
2021/12/02 11:49:47;;;;;;;;;;;;;;;6.49;69.94;100273.84;5065906;28;19921;-61
2021/12/02 11:52:12;;;;;;;;;;;;;;;6.48;69.82;100269.38;5065767;28;19921;-62
2021/12/02 11:54:38;;;;;;;;;;;;;;;6.51;70.02;100266.16;5066451;28;19921;-61
2021/12/02 11:57:03;;;;;;;;;;;;;;;6.53;69.95;100263.16;5059824;28;20074;-61
2021/12/02 11:59:28;;;;;;;;;;;;;;;6.50;69.48;100252.63;5066617;28;19921;-62
2021/12/02 12:01:56;;;;;;;;;;;;;;;6.44;69.96;100253.56;5066675;28;20429;-63
2021/12/02 12:04:22;;;;;;;;;;;;;;;6.38;69.82;100252.63;5067338;28;19920;-62
2021/12/02 12:06:52;;;;;;;;;;;;;;;6.21;69.46;100235.97;5068701;28;19927;-62
2021/12/02 12:09:18;;;;;;;;;;;;;;;6.15;70.32;100232.25;5066964;28;19920;-62
2021/12/02 12:11:46;;;;;;;;;;;;;;;6.13;70.00;100230.78;5069476;28;19925;-61
2021/12/02 12:14:13;;;;;;;;;;;;;;;6.15;70.21;100240.50;5063127;28;19927;-60
2021/12/02 12:16:42;;;;;;;;;;;;;;;6.18;69.64;100243.88;5066341;28;19951;-62
2021/12/02 12:19:18;;;;;;;;;;;;;;;6.18;70.06;100250.22;5067730;28;20385;-61
2021/12/02 12:21:45;;;;;;;;;;;;;;;6.20;70.13;100255.50;5062406;28;19920;-61
2021/12/02 12:24:14;;;;;;;;;;;;;;;6.23;70.54;100268.78;5060654;28;19927;-60
2021/12/02 12:26:43;;;;;;;;;;;;;;;6.26;69.81;100271.09;5065559;28;20296;-61
2021/12/02 12:29:12;;;;;;;;;;;;;;;6.24;70.18;100271.28;5069814;28;19973;-61
2021/12/02 12:32:06;;;;;;;;;;;;;;;6.29;70.57;100278.88;5059886;28;19921;-61
2021/12/02 12:35:16;;;;;;;;;;;;;;;6.29;70.12;100287.16;5059173;28;20437;-61
2021/12/02 12:37:51;;;;;;;;;;;;;;;6.27;69.82;100295.63;5046726;28;20273;-61
2021/12/02 12:40:33;;;;;;;;;;;;;;;6.29;70.25;100296.25;5056219;28;19921;-61
2021/12/02 12:43:15;;;;;;;;;;;;;;;6.31;69.86;100293.25;5055959;28;20360;-62
2021/12/02 12:45:42;;;;;;;;;;;;;;;6.30;69.36;100300.69;5069572;28;19927;-60
2021/12/02 12:48:23;;;;;;;;;;;;;;;6.29;70.02;100295.41;5065261;28;19927;-60
2021/12/02 12:50:49;;;;;;;;;;;;;;;6.31;69.33;100298.75;5058180;28;20380;-60
2021/12/02 12:53:17;;;;;;;;;;;;;;;6.32;69.88;100298.50;5051147;28;19931;-60
2021/12/02 12:55:49;;;;;;;;;;;;;;;6.32;69.32;100303.19;5067372;28;19955;-60
2021/12/02 12:58:16;;;;;;;;;;;;;;;6.31;69.62;100315.28;5054186;28;19927;-60
2021/12/02 13:00:44;;;;;;;;;;;;;;;6.30;69.85;100327.41;5069188;28;19928;-60
2021/12/02 13:03:13;;;;;;;;;;;;;;;6.27;69.76;100334.22;5071531;28;19917;-60
2021/12/02 13:05:45;;;;;;;;;;;;;;;6.27;69.90;100345.25;5066281;28;19920;-60
2021/12/02 13:08:17;;;;;;;;;;;;;;;6.28;69.78;100354.34;5066937;28;19916;-60
2021/12/02 13:10:53;;;;;;;;;;;;;;;6.25;69.30;100352.94;5074335;28;20798;-61
2021/12/02 13:13:23;;;;;;;;;;;;;;;6.24;69.62;100361.41;5075010;28;19921;-60